sensor_id;sensor_type;location;lat;lon;timestamp;pressure;altitude;pressure_sealevel;temperature;humidity
9235;BME280;4652;42.716;23.218;2022-12-18T00:04:04;95674.44;;;5.95;100.00
9235;BME280;4652;42.716;23.218;2022-12-18T00:10:48;95675.16;;;5.90;100.00
9235;BME280;4652;42.716;23.218;2022-12-18T00:17:30;95669.81;;;5.79;100.00
9235;BME280;4652;42.716;23.218;2022-12-18T00:24:12;95680.03;;;5.82;100.00
9235;BME280;4652;42.716;23.218;2022-12-18T00:31:01;95699.13;;;5.74;100.00
9235;BME280;4652;42.716;23.218;2022-12-18T00:37:43;95704.16;;;5.59;100.00
9235;BME280;4652;42.716;23.218;2022-12-18T00:44:25;95701.56;;;5.64;100.00
9235;BME280;4652;42.716;23.218;2022-12-18T00:51:08;95715.09;;;5.57;100.00
9235;BME280;4652;42.716;23.218;2022-12-18T00:57:51;95707.81;;;5.41;100.00
9235;BME280;4652;42.716;23.218;2022-12-18T01:04:33;95718.63;;;5.11;100.00
9235;BME280;4652;42.716;23.218;2022-12-18T01:11:18;95706.88;;;4.89;100.00
9235;BME280;4652;42.716;23.218;2022-12-18T01:18:01;95742.75;;;4.93;100.00
9235;BME280;4652;42.716;23.218;2022-12-18T01:24:43;95750.66;;;4.88;100.00
9235;BME280;4652;42.716;23.218;2022-12-18T01:31:28;95722.44;;;4.81;100.00
9235;BME280;4652;42.716;23.218;2022-12-18T01:38:10;95762.59;;;4.97;100.00
9235;BME280;4652;42.716;23.218;2022-12-18T01:45:08;95750.88;;;4.98;100.00
9235;BME280;4652;42.716;23.218;2022-12-18T01:52:05;95751.34;;;5.07;100.00
9235;BME280;4652;42.716;23.218;2022-12-18T01:58:52;95751.47;;;5.12;100.00
9235;BME280;4652;42.716;23.218;2022-12-18T04:05:18;95844.78;;;4.18;100.00
9235;BME280;4652;42.716;23.218;2022-12-18T08:08:06;96132.97;;;3.40;100.00
9235;BME280;4652;42.716;23.218;2022-12-18T08:14:48;96098.81;;;3.31;100.00
9235;BME280;4652;42.716;23.218;2022-12-18T08:21:30;96143.69;;;3.65;100.00
9235;BME280;4652;42.716;23.218;2022-12-18T08:28:14;96146.53;;;3.70;100.00
9235;BME280;4652;42.716;23.218;2022-12-18T08:34:57;96140.50;;;3.81;100.00
9235;BME280;4652;42.716;23.218;2022-12-18T08:41:39;96148.06;;;3.84;100.00
9235;BME280;4652;42.716;23.218;2022-12-18T08:48:23;96126.03;;;3.71;100.00
9235;BME280;4652;42.716;23.218;2022-12-18T08:55:06;96149.56;;;3.80;100.00
9235;BME280;4652;42.716;23.218;2022-12-18T09:01:47;96088.44;;;3.54;100.00
9235;BME280;4652;42.716;23.218;2022-12-18T09:08:37;96154.00;;;4.18;100.00
9235;BME280;4652;42.716;23.218;2022-12-18T09:15:18;96137.97;;;4.49;100.00
9235;BME280;4652;42.716;23.218;2022-12-18T09:22:01;96120.97;;;4.86;100.00
9235;BME280;4652;42.716;23.218;2022-12-18T09:28:44;96138.31;;;4.77;100.00
9235;BME280;4652;42.716;23.218;2022-12-18T09:35:26;96131.63;;;4.68;100.00
9235;BME280;4652;42.716;23.218;2022-12-18T09:42:14;96129.16;;;4.91;100.00
9235;BME280;4652;42.716;23.218;2022-12-18T09:49:01;96118.28;;;4.86;100.00
9235;BME280;4652;42.716;23.218;2022-12-18T09:55:45;96146.03;;;4.85;100.00
9235;BME280;4652;42.716;23.218;2022-12-18T10:02:30;96121.94;;;4.73;100.00
9235;BME280;4652;42.716;23.218;2022-12-18T10:09:19;96130.66;;;4.81;100.00
9235;BME280;4652;42.716;23.218;2022-12-18T10:16:11;96128.09;;;4.92;100.00
9235;BME280;4652;42.716;23.218;2022-12-18T10:23:00;96102.16;;;5.47;100.00
9235;BME280;4652;42.716;23.218;2022-12-18T10:29:45;96119.53;;;5.56;100.00
9235;BME280;4652;42.716;23.218;2022-12-18T10:36:27;96126.38;;;5.52;100.00
9235;BME280;4652;42.716;23.218;2022-12-18T10:43:12;96118.91;;;5.24;100.00
9235;BME280;4652;42.716;23.218;2022-12-18T10:49:56;96121.28;;;5.32;100.00
9235;BME280;4652;42.716;23.218;2022-12-18T10:56:38;96124.34;;;5.48;100.00
9235;BME280;4652;42.716;23.218;2022-12-18T11:03:31;96110.75;;;5.19;100.00
9235;BME280;4652;42.716;23.218;2022-12-18T11:10:18;96105.78;;;5.53;100.00
9235;BME280;4652;42.716;23.218;2022-12-18T11:17:00;96116.41;;;5.59;100.00
9235;BME280;4652;42.716;23.218;2022-12-18T11:23:46;96125.44;;;5.58;100.00
9235;BME280;4652;42.716;23.218;2022-12-18T14:08:10;96197.47;;;4.92;100.00
